Time,TemperatureF,DewpointF,PressureIn,WindDirection,WindDirectionDegrees,WindSpeedMPH,WindSpeedGustMPH,Humidity,HourlyPrecipIn,Conditions,Clouds,dailyrainin,SoftwareType,DateUTC
2013-04-01 00:06:00,57.7,57.0,29.93,NE,39,0.0,0.0,97,0.00,,,0.00,weatherlink.com 1.10,2013-04-01 05:06:00,
2013-04-01 00:21:00,57.9,57.0,29.93,WNW,284,1.0,1.0,96,0.00,,,0.00,weatherlink.com 1.10,2013-04-01 05:21:00,
2013-04-01 00:36:00,58.0,57.0,29.93,NNW,338,0.0,1.0,96,0.00,,,0.00,weatherlink.com 1.10,2013-04-01 05:36:00,
2013-04-01 00:51:00,57.9,57.0,29.92,NNW,340,0.0,4.0,96,0.00,,,0.00,weatherlink.com 1.10,2013-04-01 05:51:00,
2013-04-01 01:06:00,57.5,56.0,29.92,NW,314,0.0,1.0,96,0.00,,,0.00,weatherlink.com 1.10,2013-04-01 06:06:00,
2013-04-01 01:22:00,57.0,56.0,29.92,NW,322,0.0,0.0,96,0.00,,,0.00,weatherlink.com 1.10,2013-04-01 06:22:00,
2013-04-01 01:37:00,56.8,56.0,29.93,NW,322,0.0,0.0,96,0.00,,,0.00,weatherlink.com 1.10,2013-04-01 06:37:00,
2013-04-01 01:51:00,57.1,56.0,29.92,NW,322,0.0,1.0,97,0.00,,,0.00,weatherlink.com 1.10,2013-04-01 06:51:00,
2013-04-01 02:07:00,57.4,57.0,29.92,NNW,329,0.0,1.0,97,0.00,,,0.00,weatherlink.com 1.10,2013-04-01 07:07:00,
2013-04-01 02:22:00,57.3,57.0,29.92,WNW,290,0.0,1.0,97,0.00,,,0.00,weatherlink.com 1.10,2013-04-01 07:22:00,
2013-04-01 02:37:00,57.0,56.0,29.92,WNW,290,0.0,0.0,96,0.00,,,0.00,weatherlink.com 1.10,2013-04-01 07:37:00,
2013-04-01 02:52:00,56.5,56.0,29.92,WNW,290,0.0,0.0,97,0.00,,,0.00,weatherlink.com 1.10,2013-04-01 07:52:00,
2013-04-01 03:07:00,56.6,56.0,29.92,WNW,290,1.0,1.0,97,0.00,,,0.00,weatherlink.com 1.10,2013-04-01 08:07:00,
2013-04-01 03:22:00,56.5,56.0,29.92,WNW,288,0.0,3.0,97,0.00,,,0.00,weatherlink.com 1.10,2013-04-01 08:22:00,
2013-04-01 03:37:00,56.2,55.0,29.92,North,352,3.0,3.0,97,0.00,,,0.00,weatherlink.com 1.10,2013-04-01 08:37:00,
2013-04-01 03:52:00,55.9,55.0,29.92,North,6,0.0,2.0,97,0.00,,,0.00,weatherlink.com 1.10,2013-04-01 08:52:00,
2013-04-01 04:07:00,55.7,55.0,29.93,WNW,288,0.0,3.0,97,0.00,,,0.00,weatherlink.com 1.10,2013-04-01 09:07:00,
2013-04-01 04:22:00,55.6,55.0,29.94,WNW,288,0.0,1.0,97,0.00,,,0.00,weatherlink.com 1.10,2013-04-01 09:22:00,
2013-04-01 04:37:00,55.5,55.0,29.94,NNW,342,1.0,2.0,97,0.00,,,0.00,weatherlink.com 1.10,2013-04-01 09:37:00,
2013-04-01 04:52:00,55.3,55.0,29.95,NW,307,0.0,1.0,97,0.00,,,0.00,weatherlink.com 1.10,2013-04-01 09:52:00,
2013-04-01 05:07:00,54.9,54.0,29.95,NNW,334,0.0,3.0,97,0.00,,,0.00,weatherlink.com 1.10,2013-04-01 10:07:00,
2013-04-01 05:22:00,54.6,54.0,29.95,West,279,0.0,1.0,97,0.00,,,0.00,weatherlink.com 1.10,2013-04-01 10:22:00,
2013-04-01 05:37:00,54.2,53.0,29.96,West,280,0.0,0.0,97,0.00,,,0.00,weatherlink.com 1.10,2013-04-01 10:37:00,
2013-04-01 05:52:00,53.9,53.0,29.96,West,280,0.0,1.0,97,0.00,,,0.00,weatherlink.com 1.10,2013-04-01 10:52:00,
2013-04-01 06:07:00,53.7,53.0,29.97,West,280,0.0,0.0,97,0.00,,,0.00,weatherlink.com 1.10,2013-04-01 11:07:00,
2013-04-01 06:22:00,53.7,53.0,29.98,West,280,0.0,0.0,97,0.00,,,0.00,weatherlink.com 1.10,2013-04-01 11:22:00,
2013-04-01 06:37:00,53.4,53.0,29.98,West,280,0.0,1.0,97,0.00,,,0.00,weatherlink.com 1.10,2013-04-01 11:37:00,
2013-04-01 06:52:00,53.2,52.0,29.99,West,280,0.0,0.0,97,0.00,,,0.00,weatherlink.com 1.10,2013-04-01 11:52:00,
2013-04-01 07:07:00,53.1,52.0,30.00,West,280,0.0,0.0,97,0.00,,,0.00,weatherlink.com 1.10,2013-04-01 12:07:00,
2013-04-01 07:22:00,53.0,52.0,30.01,West,279,0.0,0.0,97,0.00,,,0.00,weatherlink.com 1.10,2013-04-01 12:22:00,
2013-04-01 07:37:00,53.2,52.0,30.02,West,280,0.0,1.0,97,0.00,,,0.00,weatherlink.com 1.10,2013-04-01 12:37:00,
2013-04-01 07:52:00,53.5,53.0,30.03,West,280,0.0,1.0,97,0.00,,,0.00,weatherlink.com 1.10,2013-04-01 12:52:00,
2013-04-01 08:07:00,54.0,53.0,30.03,West,280,0.0,1.0,97,0.00,,,0.00,weatherlink.com 1.10,2013-04-01 13:07:00,
2013-04-01 08:22:00,54.2,53.0,30.04,North,354,1.0,2.0,97,0.00,,,0.00,weatherlink.com 1.10,2013-04-01 13:22:00,
2013-04-01 08:37:00,54.5,54.0,30.04,ENE,70,0.0,2.0,97,0.00,,,0.00,weatherlink.com 1.10,2013-04-01 13:37:00,
2013-04-01 08:52:00,55.1,54.0,30.04,NNE,33,0.0,2.0,97,0.00,,,0.00,weatherlink.com 1.10,2013-04-01 13:52:00,
2013-04-01 09:07:00,55.7,55.0,30.05,NNE,15,0.0,1.0,97,0.00,,,0.00,weatherlink.com 1.10,2013-04-01 14:07:00,
2013-04-01 09:37:00,56.8,56.0,30.05,NE,54,0.0,2.0,97,0.00,,,0.00,weatherlink.com 1.10,2013-04-01 14:37:00,
2013-04-01 09:52:00,57.6,57.0,30.06,ENE,63,4.0,4.0,97,0.00,,,0.00,weatherlink.com 1.10,2013-04-01 14:52:00,
2013-04-01 10:07:00,59.0,58.0,30.07,NNW,332,1.0,3.0,96,0.00,,,0.00,weatherlink.com 1.10,2013-04-01 15:07:00,
2013-04-01 10:23:00,60.7,58.0,30.07,NNW,340,2.0,3.0,91,0.00,,,0.00,weatherlink.com 1.10,2013-04-01 15:23:00,
2013-04-01 10:38:00,62.7,59.0,30.07,NNE,33,2.0,4.0,86,0.00,,,0.00,weatherlink.com 1.10,2013-04-01 15:38:00,
2013-04-01 10:53:00,63.4,58.0,30.07,ENE,60,3.0,5.0,83,0.00,,,0.00,weatherlink.com 1.10,2013-04-01 15:53:00,
2013-04-01 11:08:00,64.0,58.0,30.07,NW,316,0.0,5.0,81,0.00,,,0.00,weatherlink.com 1.10,2013-04-01 16:08:00,
2013-04-01 11:23:00,64.5,58.0,30.07,North,4,2.0,7.0,79,0.00,,,0.00,weatherlink.com 1.10,2013-04-01 16:23:00,
2013-04-01 11:38:00,65.6,58.0,30.06,SSW,193,2.0,5.0,76,0.00,,,0.00,weatherlink.com 1.10,2013-04-01 16:38:00,
2013-04-01 11:53:00,66.1,58.0,30.06,West,270,3.0,5.0,76,0.00,,,0.00,weatherlink.com 1.10,2013-04-01 16:53:00,
2013-04-01 12:08:00,66.2,58.0,30.06,NW,310,1.0,5.0,74,0.00,,,0.00,weatherlink.com 1.10,2013-04-01 17:08:00,
2013-04-01 12:23:00,66.3,58.0,30.06,SSW,205,0.0,6.0,75,0.00,,,0.00,weatherlink.com 1.10,2013-04-01 17:23:00,
2013-04-01 12:38:00,67.0,57.0,30.06,NW,320,0.0,6.0,71,0.00,,,0.00,weatherlink.com 1.10,2013-04-01 17:38:00,
2013-04-01 12:53:00,67.6,57.0,30.06,WSW,253,0.0,7.0,70,0.00,,,0.00,weatherlink.com 1.10,2013-04-01 17:53:00,
2013-04-01 13:08:00,68.3,57.0,30.05,NE,50,1.0,5.0,68,0.00,,,0.00,weatherlink.com 1.10,2013-04-01 18:08:00,
2013-04-01 13:23:00,69.1,55.0,30.04,NNE,15,2.0,6.0,62,0.00,,,0.00,weatherlink.com 1.10,2013-04-01 18:23:00,
2013-04-01 13:38:00,69.7,57.0,30.04,NE,55,1.0,5.0,65,0.00,,,0.00,weatherlink.com 1.10,2013-04-01 18:38:00,
2013-04-01 13:53:00,70.3,54.0,30.03,NE,50,1.0,5.0,57,0.00,,,0.00,weatherlink.com 1.10,2013-04-01 18:53:00,
2013-04-01 14:08:00,71.7,56.0,30.03,West,259,1.0,5.0,58,0.00,,,0.00,weatherlink.com 1.10,2013-04-01 19:08:00,
2013-04-01 14:23:00,71.8,54.0,30.02,NW,304,0.0,5.0,54,0.00,,,0.00,weatherlink.com 1.10,2013-04-01 19:23:00,
2013-04-01 14:38:00,72.9,53.0,30.02,West,280,3.0,6.0,50,0.00,,,0.00,weatherlink.com 1.10,2013-04-01 19:38:00,
2013-04-01 14:53:00,73.6,54.0,30.00,NNW,340,3.0,6.0,50,0.00,,,0.00,weatherlink.com 1.10,2013-04-01 19:53:00,
2013-04-01 15:08:00,74.0,53.0,30.00,NE,52,2.0,5.0,48,0.00,,,0.00,weatherlink.com 1.10,2013-04-01 20:08:00,
2013-04-01 15:23:00,73.7,53.0,30.00,NE,56,2.0,6.0,49,0.00,,,0.00,weatherlink.com 1.10,2013-04-01 20:23:00,
2013-04-01 15:38:00,74.2,53.0,30.00,NNW,345,1.0,5.0,47,0.00,,,0.00,weatherlink.com 1.10,2013-04-01 20:38:00,
2013-04-01 15:53:00,74.6,53.0,29.99,SW,233,2.0,5.0,47,0.00,,,0.00,weatherlink.com 1.10,2013-04-01 20:53:00,
2013-04-01 16:08:00,75.8,53.0,29.99,ENE,68,2.0,4.0,45,0.00,,,0.00,weatherlink.com 1.10,2013-04-01 21:08:00,
2013-04-01 16:23:00,75.6,51.0,29.98,NNW,345,1.0,4.0,43,0.00,,,0.00,weatherlink.com 1.10,2013-04-01 21:23:00,
2013-04-01 16:38:00,75.4,51.0,29.98,ESE,119,2.0,4.0,43,0.00,,,0.00,weatherlink.com 1.10,2013-04-01 21:38:00,
2013-04-01 16:53:00,75.3,50.0,29.98,ENE,70,1.0,5.0,41,0.00,,,0.00,weatherlink.com 1.10,2013-04-01 21:53:00,
2013-04-01 17:08:00,75.7,50.0,29.98,ENE,72,0.0,2.0,40,0.00,,,0.00,weatherlink.com 1.10,2013-04-01 22:08:00,
2013-04-01 17:23:00,75.3,50.0,29.98,SSE,167,1.0,6.0,41,0.00,,,0.00,weatherlink.com 1.10,2013-04-01 22:23:00,
2013-04-01 17:38:00,75.2,49.0,29.98,North,349,0.0,4.0,40,0.00,,,0.00,weatherlink.com 1.10,2013-04-01 22:38:00,
2013-04-01 17:54:00,75.4,51.0,29.98,NE,51,1.0,3.0,42,0.00,,,0.00,weatherlink.com 1.10,2013-04-01 22:54:00,
2013-04-01 18:09:00,74.5,50.0,29.98,NE,51,2.0,4.0,43,0.00,,,0.00,weatherlink.com 1.10,2013-04-01 23:09:00,
2013-04-01 18:24:00,73.9,52.0,29.98,NNE,26,0.0,2.0,46,0.00,,,0.00,weatherlink.com 1.10,2013-04-01 23:24:00,
2013-04-01 18:39:00,73.7,52.0,29.98,North,6,1.0,1.0,46,0.00,,,0.00,weatherlink.com 1.10,2013-04-01 23:39:00,
2013-04-01 18:54:00,72.5,53.0,29.98,NNE,20,0.0,2.0,50,0.00,,,0.00,weatherlink.com 1.10,2013-04-01 23:54:00,
2013-04-01 19:09:00,70.4,53.0,29.98,NNE,20,0.0,0.0,54,0.00,,,0.00,weatherlink.com 1.10,2013-04-02 00:09:00,
2013-04-01 19:24:00,68.6,53.0,29.98,NNE,20,0.0,0.0,58,0.00,,,0.00,weatherlink.com 1.10,2013-04-02 00:24:00,
2013-04-01 19:39:00,66.9,54.0,29.98,NNE,20,0.0,0.0,63,0.00,,,0.00,weatherlink.com 1.10,2013-04-02 00:39:00,
2013-04-01 20:09:00,63.7,54.0,29.98,NNE,20,0.0,1.0,70,0.00,,,0.00,weatherlink.com 1.10,2013-04-02 01:09:00,
2013-04-01 20:24:00,62.5,54.0,29.99,NNE,20,0.0,0.0,74,0.00,,,0.00,weatherlink.com 1.10,2013-04-02 01:24:00,
2013-04-01 20:39:00,61.3,54.0,29.99,NNE,20,0.0,0.0,78,0.00,,,0.00,weatherlink.com 1.10,2013-04-02 01:39:00,
2013-04-01 20:54:00,60.2,54.0,30.00,NNE,20,0.0,0.0,80,0.00,,,0.00,weatherlink.com 1.10,2013-04-02 01:54:00,
2013-04-01 21:09:00,59.2,54.0,30.00,NNE,20,0.0,0.0,82,0.00,,,0.00,weatherlink.com 1.10,2013-04-02 02:09:00,
2013-04-01 21:24:00,58.6,54.0,30.00,NNE,20,0.0,0.0,83,0.00,,,0.00,weatherlink.com 1.10,2013-04-02 02:24:00,
2013-04-01 21:39:00,58.3,54.0,30.01,NNE,20,0.0,0.0,84,0.00,,,0.00,weatherlink.com 1.10,2013-04-02 02:39:00,
2013-04-01 21:54:00,57.8,53.0,30.02,NNE,20,0.0,0.0,85,0.00,,,0.00,weatherlink.com 1.10,2013-04-02 02:54:00,
2013-04-01 22:09:00,57.1,53.0,30.02,NNE,20,0.0,0.0,86,0.00,,,0.00,weatherlink.com 1.10,2013-04-02 03:09:00,
2013-04-01 22:24:00,56.5,53.0,30.02,NNE,20,0.0,0.0,87,0.00,,,0.00,weatherlink.com 1.10,2013-04-02 03:24:00,
2013-04-01 22:39:00,56.1,53.0,30.02,NNE,20,0.0,0.0,88,0.00,,,0.00,weatherlink.com 1.10,2013-04-02 03:39:00,
2013-04-01 22:54:00,55.7,52.0,30.03,NNE,20,0.0,0.0,88,0.00,,,0.00,weatherlink.com 1.10,2013-04-02 03:54:00,
2013-04-01 23:09:00,55.2,52.0,30.03,NNE,20,0.0,0.0,89,0.00,,,0.00,weatherlink.com 1.10,2013-04-02 04:09:00,
2013-04-01 23:24:00,54.8,52.0,30.03,NNE,20,0.0,0.0,89,0.00,,,0.00,weatherlink.com 1.10,2013-04-02 04:24:00,
2013-04-01 23:39:00,54.4,52.0,30.03,NNE,20,0.0,0.0,90,0.00,,,0.00,weatherlink.com 1.10,2013-04-02 04:39:00,
2013-04-01 23:54:00,54.2,52.0,30.03,NNE,20,0.0,0.0,91,0.00,,,0.00,weatherlink.com 1.10,2013-04-02 04:54:00,